Time;durP1;ratioP1;P1;durP2;ratioP2;P2;SDS_P1;SDS_P2;PMS_P1;PMS_P2;Temp;Humidity;BMP_temperature;BMP_pressure;BME280_temperature;BME280_humidity;BME280_pressure;Samples;Min_cycle;Max_cycle;Signal;HPM_P1;HPM_P2
2024/04/02 00:01:01;;;;;;;26.40;11.32;;;;;;;;;;5012140;28;20026;-69
2024/04/02 00:03:27;;;;;;;32.20;12.02;;;;;;;;;;5013280;28;20068;-68
2024/04/02 00:05:52;;;;;;;38.78;13.90;;;;;;;;;;5034608;23;20042;-65
2024/04/02 00:08:17;;;;;;;37.45;14.73;;;;;;;;;;5012871;28;20025;-66
2024/04/02 00:10:43;;;;;;;33.33;13.32;;;;;;;;;;5015055;28;20387;-66
2024/04/02 00:13:08;;;;;;;33.33;12.15;;;;;;;;;;5030906;28;20021;-66
2024/04/02 00:15:34;;;;;;;41.05;15.20;;;;;;;;;;5015995;28;20026;-66
2024/04/02 00:17:59;;;;;;;41.20;16.20;;;;;;;;;;5016333;28;20376;-66
2024/04/02 00:20:25;;;;;;;40.92;15.35;;;;;;;;;;5016418;28;20475;-66
2024/04/02 00:22:50;;;;;;;42.05;13.68;;;;;;;;;;5015356;28;20506;-65
2024/04/02 00:25:15;;;;;;;43.28;16.02;;;;;;;;;;5016682;28;20025;-66
2024/04/02 00:27:41;;;;;;;43.88;14.18;;;;;;;;;;5016115;28;20029;-66
2024/04/02 00:30:07;;;;;;;54.85;15.00;;;;;;;;;;5015865;28;20026;-66
2024/04/02 00:32:32;;;;;;;52.15;15.38;;;;;;;;;;5015752;28;20026;-66
2024/04/02 00:34:58;;;;;;;50.80;18.30;;;;;;;;;;5015320;28;20018;-66
2024/04/02 00:37:23;;;;;;;51.65;17.42;;;;;;;;;;5014348;28;20022;-66
2024/04/02 00:39:48;;;;;;;56.38;19.77;;;;;;;;;;5015616;28;20029;-66
2024/04/02 00:42:14;;;;;;;60.13;19.48;;;;;;;;;;5015554;28;20026;-66
2024/04/02 00:44:39;;;;;;;59.72;18.25;;;;;;;;;;5016114;28;20022;-66
2024/04/02 00:47:06;;;;;;;69.18;20.15;;;;;;;;;;5014908;28;20018;-66
2024/04/02 00:49:32;;;;;;;75.93;18.38;;;;;;;;;;5014189;28;20411;-66
2024/04/02 00:51:57;;;;;;;86.50;21.70;;;;;;;;;;5013301;28;20032;-66
2024/04/02 00:54:23;;;;;;;72.03;20.02;;;;;;;;;;5013068;28;20037;-66
2024/04/02 00:56:48;;;;;;;84.45;20.20;;;;;;;;;;5015174;28;20443;-66
2024/04/02 00:59:14;;;;;;;78.03;21.65;;;;;;;;;;5014586;28;20024;-66
2024/04/02 01:01:39;;;;;;;88.28;23.00;;;;;;;;;;5015321;28;20037;-66
2024/04/02 01:04:05;;;;;;;82.35;22.25;;;;;;;;;;5015231;28;20077;-66
2024/04/02 01:06:31;;;;;;;89.80;24.40;;;;;;;;;;5013548;28;20484;-66
2024/04/02 01:08:56;;;;;;;82.28;22.42;;;;;;;;;;5014215;28;20097;-66
2024/04/02 01:11:24;;;;;;;86.97;26.08;;;;;;;;;;5014324;28;20097;-66
2024/04/02 01:13:51;;;;;;;74.63;23.35;;;;;;;;;;5014781;28;20018;-66
2024/04/02 01:16:19;;;;;;;78.85;23.83;;;;;;;;;;5015162;28;20364;-66
2024/04/02 01:18:45;;;;;;;77.03;24.67;;;;;;;;;;5014901;28;20503;-66
2024/04/02 01:21:11;;;;;;;78.88;23.92;;;;;;;;;;5014854;28;20030;-66
2024/04/02 01:23:36;;;;;;;69.85;25.15;;;;;;;;;;5014236;28;20022;-66
2024/04/02 01:26:02;;;;;;;96.88;24.42;;;;;;;;;;5014220;28;20021;-66
2024/04/02 01:28:27;;;;;;;75.90;25.48;;;;;;;;;;5014642;28;20372;-66
2024/04/02 01:30:52;;;;;;;75.97;23.80;;;;;;;;;;5014604;28;20030;-66
2024/04/02 01:33:18;;;;;;;82.88;24.85;;;;;;;;;;5014107;28;20017;-66
2024/04/02 01:35:43;;;;;;;76.68;25.13;;;;;;;;;;5014460;28;20372;-66
2024/04/02 01:38:08;;;;;;;49.67;17.85;;;;;;;;;;5013619;28;20030;-66
2024/04/02 01:40:34;;;;;;;57.40;21.10;;;;;;;;;;5014198;28;20021;-65
2024/04/02 01:42:59;;;;;;;64.15;22.92;;;;;;;;;;5014196;28;20479;-66
2024/04/02 01:45:24;;;;;;;57.50;21.08;;;;;;;;;;5014059;28;20022;-66
2024/04/02 01:47:50;;;;;;;63.00;20.63;;;;;;;;;;5014433;28;20030;-66
2024/04/02 01:50:15;;;;;;;57.10;19.00;;;;;;;;;;5013165;28;20029;-66
2024/04/02 01:52:40;;;;;;;57.78;22.83;;;;;;;;;;5014397;28;20022;-66
2024/04/02 01:55:06;;;;;;;63.15;22.60;;;;;;;;;;5013978;28;20017;-65
2024/04/02 01:57:31;;;;;;;61.63;22.85;;;;;;;;;;5013805;28;20044;-65
2024/04/02 01:59:57;;;;;;;68.30;20.58;;;;;;;;;;5013778;28;20036;-65
2024/04/02 02:02:22;;;;;;;53.03;20.73;;;;;;;;;;5013791;28;20083;-65
2024/04/02 02:04:47;;;;;;;66.18;20.50;;;;;;;;;;5013489;28;20048;-65
2024/04/02 02:07:13;;;;;;;67.93;22.10;;;;;;;;;;5013455;28;20036;-65
2024/04/02 02:09:38;;;;;;;51.65;18.45;;;;;;;;;;5013780;28;20088;-65
2024/04/02 02:12:03;;;;;;;57.20;20.00;;;;;;;;;;5013706;28;20398;-66
2024/04/02 02:14:29;;;;;;;61.35;20.27;;;;;;;;;;5029004;28;20029;-65
2024/04/02 02:16:54;;;;;;;48.83;17.92;;;;;;;;;;5014044;28;20025;-65
2024/04/02 02:19:19;;;;;;;59.72;19.33;;;;;;;;;;5013849;28;20026;-66
2024/04/02 02:21:48;;;;;;;61.50;20.95;;;;;;;;;;5004599;28;20022;-66
2024/04/02 02:24:13;;;;;;;49.58;20.75;;;;;;;;;;4997397;28;20026;-66
2024/04/02 02:26:38;;;;;;;57.55;19.90;;;;;;;;;;5013700;28;20021;-65
2024/04/02 02:29:04;;;;;;;62.10;20.00;;;;;;;;;;5010968;28;20522;-65
2024/04/02 02:31:29;;;;;;;53.65;20.20;;;;;;;;;;4995838;28;20018;-66
2024/04/02 02:33:54;;;;;;;53.05;21.33;;;;;;;;;;4994820;28;20027;-65
2024/04/02 02:36:20;;;;;;;58.03;19.27;;;;;;;;;;5002454;28;20034;-66
2024/04/02 02:38:46;;;;;;;56.70;21.60;;;;;;;;;;4993699;28;20026;-66
2024/04/02 02:41:11;;;;;;;49.50;17.10;;;;;;;;;;4996641;28;20030;-65
2024/04/02 02:43:37;;;;;;;48.47;16.95;;;;;;;;;;5013275;28;20071;-66
2024/04/02 02:46:02;;;;;;;49.65;20.02;;;;;;;;;;5012681;28;20032;-66
2024/04/02 02:48:28;;;;;;;49.47;19.27;;;;;;;;;;5013302;28;20388;-66
2024/04/02 02:50:53;;;;;;;47.28;17.42;;;;;;;;;;5013908;28;20029;-66
2024/04/02 02:53:18;;;;;;;52.28;18.58;;;;;;;;;;5006532;28;20026;-65
2024/04/02 02:55:52;;;;;;;47.75;17.33;;;;;;;;;;5011936;28;20025;-66
2024/04/02 02:58:18;;;;;;;48.47;15.82;;;;;;;;;;4997155;28;20033;-66
2024/04/02 03:00:43;;;;;;;40.40;16.45;;;;;;;;;;5003307;28;20029;-66
2024/04/02 03:03:08;;;;;;;40.35;16.23;;;;;;;;;;5012943;28;20038;-65
2024/04/02 03:05:34;;;;;;;35.13;14.02;;;;;;;;;;5013130;28;20034;-66
2024/04/02 03:07:59;;;;;;;40.45;14.23;;;;;;;;;;5012212;28;20030;-65
2024/04/02 03:10:24;;;;;;;35.60;13.25;;;;;;;;;;5013930;28;20030;-66
2024/04/02 03:12:50;;;;;;;34.60;12.20;;;;;;;;;;5012997;28;20014;-65
2024/04/02 03:15:16;;;;;;;37.60;13.80;;;;;;;;;;5013299;28;20076;-65
2024/04/02 03:17:41;;;;;;;36.85;11.07;;;;;;;;;;5012886;28;20026;-65
2024/04/02 03:20:07;;;;;;;22.63;10.23;;;;;;;;;;5012500;28;20489;-66
2024/04/02 03:22:32;;;;;;;32.45;11.65;;;;;;;;;;5013062;28;20037;-66
2024/04/02 03:24:57;;;;;;;33.80;11.07;;;;;;;;;;5013125;28;20034;-66
2024/04/02 03:27:23;;;;;;;24.58;9.88;;;;;;;;;;5012058;28;20537;-65
2024/04/02 03:29:48;;;;;;;23.95;9.38;;;;;;;;;;5006509;28;20036;-66
2024/04/02 03:32:15;;;;;;;26.00;11.35;;;;;;;;;;5012662;28;20025;-65
2024/04/02 03:34:40;;;;;;;28.38;10.40;;;;;;;;;;5012550;28;20026;-65
2024/04/02 03:37:05;;;;;;;24.27;9.45;;;;;;;;;;5012775;28;20092;-65
2024/04/02 03:39:32;;;;;;;25.08;9.75;;;;;;;;;;5012302;28;20038;-66
2024/04/02 03:41:58;;;;;;;24.00;8.82;;;;;;;;;;5012671;28;20037;-65
2024/04/02 03:44:23;;;;;;;22.63;9.48;;;;;;;;;;5013097;28;20025;-66
2024/04/02 03:46:48;;;;;;;26.08;9.98;;;;;;;;;;5015721;28;20022;-65
2024/04/02 03:49:14;;;;;;;24.45;9.10;;;;;;;;;;5016193;28;20079;-65
2024/04/02 03:51:39;;;;;;;23.67;9.35;;;;;;;;;;5016399;28;20089;-66
2024/04/02 03:54:04;;;;;;;29.67;8.25;;;;;;;;;;5016371;28;20122;-66
2024/04/02 03:56:31;;;;;;;25.55;10.57;;;;;;;;;;5015465;28;20083;-66
2024/04/02 03:58:56;;;;;;;24.48;8.23;;;;;;;;;;5016862;28;20506;-65
2024/04/02 04:01:22;;;;;;;16.50;7.68;;;;;;;;;;5016150;28;20022;-65
2024/04/02 04:03:48;;;;;;;19.38;8.32;;;;;;;;;;5015932;28;20037;-66
2024/04/02 04:06:13;;;;;;;19.38;7.10;;;;;;;;;;5015589;28;20502;-66
2024/04/02 04:08:38;;;;;;;21.02;8.30;;;;;;;;;;5015665;28;20068;-66
2024/04/02 04:11:04;;;;;;;16.33;8.82;;;;;;;;;;5015825;28;20048;-66
2024/04/02 04:13:29;;;;;;;25.70;8.55;;;;;;;;;;5016018;28;20365;-65
2024/04/02 04:15:57;;;;;;;18.58;7.43;;;;;;;;;;5016066;28;20037;-65
2024/04/02 04:18:23;;;;;;;20.05;7.97;;;;;;;;;;5013745;28;20025;-66
2024/04/02 04:20:56;;;;;;;19.17;6.72;;;;;;;;;;5016143;28;20388;-66
2024/04/02 04:23:22;;;;;;;15.93;6.43;;;;;;;;;;5015590;28;20392;-66
2024/04/02 04:26:14;;;;;;;25.83;7.88;;;;;;;;;;5008529;28;20045;-65
2024/04/02 04:28:40;;;;;;;18.88;6.55;;;;;;;;;;4996026;28;20254;-66
2024/04/02 04:31:05;;;;;;;21.77;7.30;;;;;;;;;;4997129;28;20467;-65
2024/04/02 04:33:31;;;;;;;20.88;8.20;;;;;;;;;;5001026;28;20026;-66
2024/04/02 04:35:57;;;;;;;21.17;7.30;;;;;;;;;;4995844;28;20026;-66
2024/04/02 04:38:24;;;;;;;20.80;7.10;;;;;;;;;;5007774;28;20021;-66
2024/04/02 04:40:50;;;;;;;27.45;7.70;;;;;;;;;;5014315;28;20387;-65
2024/04/02 04:43:16;;;;;;;21.20;8.10;;;;;;;;;;5015714;28;20025;-65
2024/04/02 04:45:50;;;;;;;21.45;9.32;;;;;;;;;;5015426;28;20084;-65
2024/04/02 04:48:15;;;;;;;19.67;6.25;;;;;;;;;;5015469;28;20032;-66
2024/04/02 04:50:41;;;;;;;16.50;6.82;;;;;;;;;;5015094;28;20407;-66
2024/04/02 04:53:06;;;;;;;21.98;6.50;;;;;;;;;;5014717;28;20018;-66
2024/04/02 04:55:31;;;;;;;22.70;8.00;;;;;;;;;;5014794;28;20472;-65
2024/04/02 04:57:57;;;;;;;22.73;7.63;;;;;;;;;;5014885;28;20022;-66
2024/04/02 05:00:22;;;;;;;18.85;6.80;;;;;;;;;;5015276;28;20030;-66
2024/04/02 05:02:48;;;;;;;21.73;7.82;;;;;;;;;;5014521;28;20034;-65
2024/04/02 05:05:13;;;;;;;20.42;6.50;;;;;;;;;;5014935;28;20025;-66
2024/04/02 05:07:54;;;;;;;28.15;6.90;;;;;;;;;;5012627;28;20022;-66
2024/04/02 05:10:19;;;;;;;18.27;6.97;;;;;;;;;;5023477;28;20557;-66
2024/04/02 05:12:45;;;;;;;18.73;7.15;;;;;;;;;;5014822;28;20022;-66
2024/04/02 05:15:10;;;;;;;26.25;6.95;;;;;;;;;;5014463;28;20426;-66
2024/04/02 05:17:35;;;;;;;20.13;6.35;;;;;;;;;;5014668;28;20022;-66
2024/04/02 05:20:01;;;;;;;24.77;6.63;;;;;;;;;;5014865;28;20026;-65
2024/04/02 05:22:26;;;;;;;21.63;7.25;;;;;;;;;;5013818;28;20025;-66
2024/04/02 05:24:51;;;;;;;17.55;7.22;;;;;;;;;;5014791;28;20022;-66
2024/04/02 05:27:17;;;;;;;23.05;8.40;;;;;;;;;;5014726;28;20022;-66
2024/04/02 05:29:42;;;;;;;19.30;6.82;;;;;;;;;;5014757;28;20030;-66
2024/04/02 05:32:07;;;;;;;21.35;7.22;;;;;;;;;;5014427;28;20021;-66
2024/04/02 05:34:33;;;;;;;21.13;7.85;;;;;;;;;;5013864;28;20541;-65
2024/04/02 05:36:58;;;;;;;22.50;8.00;;;;;;;;;;5014277;28;20032;-66
2024/04/02 05:39:24;;;;;;;18.52;7.75;;;;;;;;;;5014496;28;20039;-66
2024/04/02 05:41:49;;;;;;;27.00;7.47;;;;;;;;;;5014245;28;20026;-66
2024/04/02 05:44:15;;;;;;;19.25;7.47;;;;;;;;;;5014579;28;20034;-66
2024/04/02 05:46:40;;;;;;;20.27;8.00;;;;;;;;;;5013685;28;20399;-66
2024/04/02 05:49:05;;;;;;;21.98;7.55;;;;;;;;;;5014733;28;20029;-66
2024/04/02 05:51:31;;;;;;;21.35;8.63;;;;;;;;;;5014664;28;20040;-66
2024/04/02 05:53:56;;;;;;;25.23;8.07;;;;;;;;;;5014139;28;20491;-66
2024/04/02 05:56:21;;;;;;;18.17;7.53;;;;;;;;;;5014403;28;20071;-66
2024/04/02 05:58:47;;;;;;;19.90;7.50;;;;;;;;;;5014844;28;20032;-66
2024/04/02 06:01:12;;;;;;;22.73;8.35;;;;;;;;;;5013425;28;20467;-66
2024/04/02 06:03:37;;;;;;;17.60;7.32;;;;;;;;;;5013938;28;20041;-66
2024/04/02 06:06:03;;;;;;;19.75;8.32;;;;;;;;;;5013845;28;20033;-66
2024/04/02 06:08:29;;;;;;;16.63;6.47;;;;;;;;;;5013188;28;20029;-66
2024/04/02 06:10:54;;;;;;;17.83;7.45;;;;;;;;;;5013788;28;20072;-66
2024/04/02 06:13:19;;;;;;;21.75;7.53;;;;;;;;;;5012024;28;20479;-66
2024/04/02 06:15:45;;;;;;;15.38;7.28;;;;;;;;;;5013725;28;20022;-66
2024/04/02 06:18:10;;;;;;;24.20;8.10;;;;;;;;;;5014021;28;20472;-66
2024/04/02 06:20:36;;;;;;;22.35;7.65;;;;;;;;;;5013909;28;20033;-66
2024/04/02 06:23:01;;;;;;;20.20;8.52;;;;;;;;;;5013491;28;20018;-66
2024/04/02 06:25:26;;;;;;;23.27;8.27;;;;;;;;;;5013313;28;20090;-66
2024/04/02 06:27:52;;;;;;;19.63;8.10;;;;;;;;;;5013569;28;20040;-66
2024/04/02 06:30:17;;;;;;;19.55;7.10;;;;;;;;;;5013653;28;20056;-66
2024/04/02 06:32:42;;;;;;;17.52;7.28;;;;;;;;;;5013594;28;20018;-66
2024/04/02 06:35:08;;;;;;;17.55;7.38;;;;;;;;;;5014246;28;20017;-66
2024/04/02 06:37:33;;;;;;;21.55;7.43;;;;;;;;;;5012874;28;20025;-66
2024/04/02 06:39:59;;;;;;;19.55;6.47;;;;;;;;;;5014043;28;20026;-66
2024/04/02 06:42:25;;;;;;;18.67;8.13;;;;;;;;;;5013663;28;20443;-66
2024/04/02 06:44:50;;;;;;;13.82;6.63;;;;;;;;;;5013465;28;20022;-66
2024/04/02 06:47:16;;;;;;;17.98;7.57;;;;;;;;;;5013294;28;20052;-66
2024/04/02 06:49:41;;;;;;;18.10;6.40;;;;;;;;;;5012904;28;20033;-66
2024/04/02 06:52:06;;;;;;;15.88;5.68;;;;;;;;;;5013401;28;20462;-66
2024/04/02 06:54:32;;;;;;;17.40;7.35;;;;;;;;;;5013764;28;20022;-66
2024/04/02 06:56:57;;;;;;;20.40;6.85;;;;;;;;;;5013450;28;20022;-66
2024/04/02 06:59:23;;;;;;;18.60;7.68;;;;;;;;;;5013247;28;20056;-66
2024/04/02 07:01:48;;;;;;;14.55;6.63;;;;;;;;;;5012858;28;20026;-66
2024/04/02 07:04:13;;;;;;;17.88;6.50;;;;;;;;;;5013853;28;20052;-66
2024/04/02 07:06:39;;;;;;;13.25;7.35;;;;;;;;;;5013198;28;20416;-66
2024/04/02 07:09:04;;;;;;;14.77;6.20;;;;;;;;;;5012072;28;20058;-66
2024/04/02 07:11:30;;;;;;;20.58;7.07;;;;;;;;;;5013032;28;20026;-65
2024/04/02 07:13:55;;;;;;;21.60;7.45;;;;;;;;;;5013220;28;20022;-66
2024/04/02 07:16:20;;;;;;;14.55;6.60;;;;;;;;;;5012639;28;20030;-66
2024/04/02 07:18:46;;;;;;;17.23;7.03;;;;;;;;;;5013852;28;20026;-66
2024/04/02 07:21:11;;;;;;;17.30;6.47;;;;;;;;;;5017053;28;20102;-66
2024/04/02 07:23:37;;;;;;;22.48;8.30;;;;;;;;;;5017099;28;20033;-66
2024/04/02 07:26:03;;;;;;;19.85;7.05;;;;;;;;;;5016583;28;20426;-65
2024/04/02 07:28:30;;;;;;;16.00;7.35;;;;;;;;;;5016900;28;20028;-65
2024/04/02 07:30:55;;;;;;;19.30;6.65;;;;;;;;;;5017082;28;20068;-66
2024/04/02 07:33:21;;;;;;;19.30;6.90;;;;;;;;;;5016980;28;20423;-66
2024/04/02 07:35:47;;;;;;;20.13;7.70;;;;;;;;;;5016350;28;20025;-66
2024/04/02 07:38:13;;;;;;;16.48;6.60;;;;;;;;;;5015800;28;20059;-66
2024/04/02 07:40:39;;;;;;;13.18;6.38;;;;;;;;;;5017237;28;20064;-66
2024/04/02 07:43:06;;;;;;;15.13;6.70;;;;;;;;;;5016566;28;20443;-66
2024/04/02 07:45:34;;;;;;;20.65;7.03;;;;;;;;;;5014814;28;20438;-65
2024/04/02 07:47:59;;;;;;;14.65;7.07;;;;;;;;;;5016550;28;20041;-66
2024/04/02 07:50:32;;;;;;;15.88;6.60;;;;;;;;;;5016560;28;20021;-66
2024/04/02 07:52:57;;;;;;;16.50;6.45;;;;;;;;;;5016470;28;20108;-66
2024/04/02 07:55:23;;;;;;;13.63;6.18;;;;;;;;;;5015979;28;20121;-65
2024/04/02 07:57:48;;;;;;;12.65;6.07;;;;;;;;;;5016570;28;20029;-66
2024/04/02 08:00:14;;;;;;;18.70;6.15;;;;;;;;;;5016367;28;20537;-66
2024/04/02 08:02:39;;;;;;;15.15;6.85;;;;;;;;;;5016064;28;20044;-66
2024/04/02 08:05:07;;;;;;;17.73;7.45;;;;;;;;;;5015882;28;20025;-66
2024/04/02 08:07:33;;;;;;;17.77;7.07;;;;;;;;;;5016144;28;20186;-66
2024/04/02 08:10:00;;;;;;;14.52;6.65;;;;;;;;;;5016231;28;20499;-66
2024/04/02 08:12:25;;;;;;;18.40;6.95;;;;;;;;;;5015900;28;20022;-66
2024/04/02 08:14:51;;;;;;;17.52;6.95;;;;;;;;;;5016077;28;20084;-66
2024/04/02 08:17:17;;;;;;;17.60;7.05;;;;;;;;;;5016282;28;20028;-66
2024/04/02 08:19:42;;;;;;;25.27;7.10;;;;;;;;;;5015486;28;20021;-65
2024/04/02 08:22:08;;;;;;;14.02;6.18;;;;;;;;;;5014844;28;20088;-66
2024/04/02 08:24:33;;;;;;;19.92;8.00;;;;;;;;;;5012057;28;20025;-66
2024/04/02 08:26:58;;;;;;;14.07;6.05;;;;;;;;;;5014394;28;20034;-66
2024/04/02 08:29:24;;;;;;;20.02;6.60;;;;;;;;;;5015553;28;20025;-66
2024/04/02 08:31:49;;;;;;;12.10;6.00;;;;;;;;;;5014991;28;20025;-66
2024/04/02 08:34:14;;;;;;;15.02;6.85;;;;;;;;;;5015424;28;20094;-66
2024/04/02 08:36:41;;;;;;;14.05;6.68;;;;;;;;;;5015426;28;20026;-66
2024/04/02 08:39:06;;;;;;;13.02;5.25;;;;;;;;;;5015520;28;20033;-66
2024/04/02 08:41:36;;;;;;;9.88;4.18;;;;;;;;;;5015656;28;20387;-66
2024/04/02 08:44:01;;;;;;;12.85;5.20;;;;;;;;;;5014883;28;20022;-66
2024/04/02 08:46:28;;;;;;;9.07;4.85;;;;;;;;;;5014407;28;20506;-66
2024/04/02 08:48:57;;;;;;;10.52;4.60;;;;;;;;;;5015395;28;20392;-66
2024/04/02 08:51:23;;;;;;;11.18;4.35;;;;;;;;;;5014437;28;20022;-66
2024/04/02 08:53:48;;;;;;;7.95;3.88;;;;;;;;;;5014387;28;20087;-66
2024/04/02 08:56:16;;;;;;;11.18;4.15;;;;;;;;;;5015511;28;20030;-66
2024/04/02 08:58:43;;;;;;;10.13;4.80;;;;;;;;;;5014369;28;20097;-66
2024/04/02 09:01:11;;;;;;;10.23;4.20;;;;;;;;;;5014948;28;20498;-66
2024/04/02 09:03:36;;;;;;;11.40;4.13;;;;;;;;;;5015283;28;20037;-66
2024/04/02 09:06:03;;;;;;;10.82;4.47;;;;;;;;;;5014589;28;20509;-66
2024/04/02 09:08:28;;;;;;;12.38;5.07;;;;;;;;;;5014954;28;20036;-66
2024/04/02 09:10:53;;;;;;;8.73;3.58;;;;;;;;;;5030088;28;20026;-66
2024/04/02 09:13:20;;;;;;;12.15;4.85;;;;;;;;;;5014077;28;20029;-66
2024/04/02 09:15:46;;;;;;;9.05;4.15;;;;;;;;;;5014481;28;20109;-66
2024/04/02 09:18:14;;;;;;;9.30;3.83;;;;;;;;;;5014876;28;20029;-66
2024/04/02 09:20:39;;;;;;;8.43;4.38;;;;;;;;;;5012790;28;20040;-66
2024/04/02 09:23:04;;;;;;;7.90;4.43;;;;;;;;;;5014404;28;20475;-66
2024/04/02 09:25:30;;;;;;;6.82;3.65;;;;;;;;;;5014704;28;20017;-66
2024/04/02 09:27:55;;;;;;;10.57;4.65;;;;;;;;;;5014467;28;20026;-66
2024/04/02 09:30:22;;;;;;;9.07;4.60;;;;;;;;;;5013828;28;20025;-66
2024/04/02 09:32:48;;;;;;;11.13;5.07;;;;;;;;;;5014484;28;20029;-66
2024/04/02 09:35:13;;;;;;;7.53;3.95;;;;;;;;;;5011671;28;20026;-67
2024/04/02 09:37:47;;;;;;;12.80;4.25;;;;;;;;;;5028939;28;20026;-66
2024/04/02 09:40:12;;;;;;;8.50;4.13;;;;;;;;;;5012484;28;20041;-66
2024/04/02 09:42:40;;;;;;;10.57;4.70;;;;;;;;;;5012004;28;20037;-66
2024/04/02 09:45:08;;;;;;;10.88;4.78;;;;;;;;;;5027440;28;20030;-66
2024/04/02 09:47:34;;;;;;;7.10;4.93;;;;;;;;;;5013880;28;20069;-66
2024/04/02 09:50:00;;;;;;;10.02;3.83;;;;;;;;;;5012850;28;20025;-66
2024/04/02 09:52:25;;;;;;;9.80;4.13;;;;;;;;;;5014093;28;20033;-66
2024/04/02 09:54:51;;;;;;;10.45;5.07;;;;;;;;;;5012934;28;20025;-66
2024/04/02 09:57:18;;;;;;;8.48;4.15;;;;;;;;;;5013376;28;20037;-66
2024/04/02 09:59:43;;;;;;;10.50;4.20;;;;;;;;;;5012730;28;20096;-66
2024/04/02 10:02:14;;;;;;;11.95;4.35;;;;;;;;;;5012716;28;20491;-66
2024/04/02 10:04:40;;;;;;;7.93;3.67;;;;;;;;;;5028445;28;20372;-65
2024/04/02 10:07:05;;;;;;;7.85;4.32;;;;;;;;;;5013436;28;20045;-66
2024/04/02 10:09:57;;;;;;;10.70;4.53;;;;;;;;;;5013600;28;20480;-66
2024/04/02 10:12:27;;;;;;;9.60;3.90;;;;;;;;;;5006604;28;20034;-66
2024/04/02 10:14:53;;;;;;;7.28;3.60;;;;;;;;;;5013442;28;20033;-66
2024/04/02 10:17:18;;;;;;;6.95;3.88;;;;;;;;;;5013609;28;20072;-66
2024/04/02 10:19:46;;;;;;;9.00;4.60;;;;;;;;;;5013582;28;20491;-66
2024/04/02 10:22:11;;;;;;;10.13;5.03;;;;;;;;;;5013724;28;20108;-65
2024/04/02 10:24:37;;;;;;;7.35;3.83;;;;;;;;;;5013184;28;20456;-66
2024/04/02 10:27:03;;;;;;;13.82;4.22;;;;;;;;;;5013196;28;20392;-66
2024/04/02 10:29:31;;;;;;;10.25;4.25;;;;;;;;;;5012810;28;20068;-66
2024/04/02 10:31:57;;;;;;;9.90;4.68;;;;;;;;;;5012336;28;20030;-66
2024/04/02 10:34:23;;;;;;;16.77;4.93;;;;;;;;;;5013152;28;20022;-66
2024/04/02 10:36:48;;;;;;;7.55;4.63;;;;;;;;;;5013166;28;20021;-66
2024/04/02 10:39:14;;;;;;;6.53;3.50;;;;;;;;;;5012543;28;20037;-66
2024/04/02 10:41:40;;;;;;;10.82;4.35;;;;;;;;;;5013186;28;20396;-66
2024/04/02 10:44:05;;;;;;;9.05;3.78;;;;;;;;;;5012759;28;20022;-66
2024/04/02 10:46:31;;;;;;;10.02;5.20;;;;;;;;;;5012745;28;20022;-66
2024/04/02 10:48:58;;;;;;;7.90;3.38;;;;;;;;;;5011408;28;20028;-66
2024/04/02 10:51:25;;;;;;;9.43;4.22;;;;;;;;;;5013102;28;20033;-66
2024/04/02 10:53:52;;;;;;;8.77;4.47;;;;;;;;;;5011595;28;20020;-66
2024/04/02 10:56:18;;;;;;;15.13;4.55;;;;;;;;;;5027644;28;20026;-66
2024/04/02 10:58:43;;;;;;;11.82;5.38;;;;;;;;;;5012604;28;20652;-66
2024/04/02 11:01:09;;;;;;;7.55;3.20;;;;;;;;;;5011545;28;20025;-66
2024/04/02 11:03:34;;;;;;;10.15;4.15;;;;;;;;;;5012713;28;20046;-66
2024/04/02 11:06:02;;;;;;;8.05;4.32;;;;;;;;;;5011190;28;20053;-66
2024/04/02 11:08:27;;;;;;;7.32;3.85;;;;;;;;;;5012768;28;20018;-66
2024/04/02 11:10:53;;;;;;;9.27;4.00;;;;;;;;;;5013085;28;20022;-66
2024/04/02 11:13:25;;;;;;;8.40;3.80;;;;;;;;;;5013090;28;20024;-66
2024/04/02 11:15:51;;;;;;;8.85;3.92;;;;;;;;;;5011371;28;20025;-66
2024/04/02 11:18:26;;;;;;;11.35;3.55;;;;;;;;;;5012544;28;20029;-66
2024/04/02 11:20:58;;;;;;;5.28;3.38;;;;;;;;;;5011308;28;20105;-66
2024/04/02 11:26:20;;;;;;;7.15;3.75;;;;;;;;;;5012977;28;20045;-66
2024/04/02 11:28:46;;;;;;;8.65;3.88;;;;;;;;;;5012265;28;20050;-66
2024/04/02 11:31:12;;;;;;;9.15;4.38;;;;;;;;;;5012817;28;20101;-66
2024/04/02 11:33:41;;;;;;;8.90;3.72;;;;;;;;;;5011334;28;20475;-66
2024/04/02 11:36:07;;;;;;;7.22;3.92;;;;;;;;;;5012589;28;20064;-66
2024/04/02 11:38:36;;;;;;;11.27;5.05;;;;;;;;;;5012483;28;20097;-66
2024/04/02 11:41:05;;;;;;;10.75;4.35;;;;;;;;;;5011829;28;20132;-66
2024/04/02 11:43:31;;;;;;;8.00;3.63;;;;;;;;;;5026780;28;20109;-66
2024/04/02 11:45:57;;;;;;;13.50;3.97;;;;;;;;;;5011086;28;20026;-66
2024/04/02 11:48:22;;;;;;;11.60;4.15;;;;;;;;;;5012476;28;20033;-66
2024/04/02 11:50:47;;;;;;;7.95;3.78;;;;;;;;;;5012108;28;20084;-66
2024/04/02 11:53:13;;;;;;;9.82;4.30;;;;;;;;;;5011195;28;20491;-66
2024/04/02 11:55:41;;;;;;;10.52;3.97;;;;;;;;;;5011954;28;20055;-66
2024/04/02 12:00:51;;;;;;;14.45;4.85;;;;;;;;;;5025503;28;20041;-66
2024/04/02 12:03:16;;;;;;;12.10;4.97;;;;;;;;;;5012048;28;20041;-66
2024/04/02 12:05:41;;;;;;;12.32;5.28;;;;;;;;;;5011822;28;20025;-66
2024/04/02 12:08:07;;;;;;;9.00;4.55;;;;;;;;;;5050331;23;20049;-65
2024/04/02 12:10:33;;;;;;;12.30;5.30;;;;;;;;;;5035602;28;20032;-65
2024/04/02 12:12:58;;;;;;;9.73;5.05;;;;;;;;;;5031039;28;20087;-65
2024/04/02 12:15:23;;;;;;;11.15;5.43;;;;;;;;;;5035075;28;20022;-65
2024/04/02 12:17:49;;;;;;;15.13;5.15;;;;;;;;;;5035242;28;20033;-65
2024/04/02 12:20:14;;;;;;;11.40;6.35;;;;;;;;;;5024054;28;20472;-65
2024/04/02 12:22:39;;;;;;;15.90;5.30;;;;;;;;;;5015632;28;20080;-64
2024/04/02 12:25:05;;;;;;;10.75;5.05;;;;;;;;;;5017444;28;20044;-66
2024/04/02 12:27:30;;;;;;;12.82;5.75;;;;;;;;;;5033709;28;20534;-65
2024/04/02 12:29:57;;;;;;;17.92;5.57;;;;;;;;;;5035385;28;20018;-65
2024/04/02 12:32:23;;;;;;;17.95;6.68;;;;;;;;;;5027753;28;20079;-65
2024/04/02 12:34:49;;;;;;;24.48;10.90;;;;;;;;;;5034631;28;20071;-65
2024/04/02 12:37:14;;;;;;;52.88;21.77;;;;;;;;;;5029464;28;20079;-65
2024/04/02 12:39:41;;;;;;;32.15;10.48;;;;;;;;;;5034636;28;20426;-64
2024/04/02 12:42:08;;;;;;;101.63;33.08;;;;;;;;;;5025399;28;20036;-65
2024/04/02 12:44:33;;;;;;;118.72;32.20;;;;;;;;;;5034441;28;20029;-65
2024/04/02 12:46:59;;;;;;;390.48;110.35;;;;;;;;;;5030126;28;20368;-65
2024/04/02 12:49:24;;;;;;;608.63;185.48;;;;;;;;;;5015407;28;20030;-65
2024/04/02 12:51:51;;;;;;;21.65;13.73;;;;;;;;;;5014542;28;20084;-65
2024/04/02 12:54:17;;;;;;;18.35;10.80;;;;;;;;;;5015303;28;20371;-65
2024/04/02 12:56:42;;;;;;;27.15;16.48;;;;;;;;;;5014941;28;20450;-65
2024/04/02 12:59:07;;;;;;;27.25;16.52;;;;;;;;;;5015872;28;20030;-65
2024/04/02 13:01:33;;;;;;;14.70;8.73;;;;;;;;;;5016486;28;20026;-65
2024/04/02 13:03:58;;;;;;;17.35;8.05;;;;;;;;;;5014499;28;20042;-64
2024/04/02 13:06:23;;;;;;;12.77;7.53;;;;;;;;;;5027580;28;20026;-65
2024/04/02 13:08:51;;;;;;;14.77;8.48;;;;;;;;;;5034270;28;20449;-64
2024/04/02 13:11:16;;;;;;;14.25;7.43;;;;;;;;;;5027834;28;20510;-65
2024/04/02 13:13:42;;;;;;;16.50;8.30;;;;;;;;;;5034797;28;20017;-65
2024/04/02 13:16:20;;;;;;;16.95;9.20;;;;;;;;;;5034573;28;20034;-65
2024/04/02 13:18:45;;;;;;;18.77;8.90;;;;;;;;;;5015140;28;20567;-65
2024/04/02 13:21:14;;;;;;;17.77;7.60;;;;;;;;;;5013381;28;20116;-65
2024/04/02 13:23:39;;;;;;;21.63;10.73;;;;;;;;;;5016000;28;20504;-65
2024/04/02 13:26:11;;;;;;;14.90;6.75;;;;;;;;;;4995142;28;20026;-65
2024/04/02 13:28:37;;;;;;;14.45;7.82;;;;;;;;;;4997974;28;20065;-65
2024/04/02 13:31:11;;;;;;;12.55;6.43;;;;;;;;;;5027626;28;20061;-65
2024/04/02 13:33:37;;;;;;;15.93;6.88;;;;;;;;;;5014478;28;20018;-65
2024/04/02 13:36:14;;;;;;;27.08;7.97;;;;;;;;;;5017687;28;20029;-65
2024/04/02 13:38:41;;;;;;;14.07;6.53;;;;;;;;;;5012980;28;20069;-64
2024/04/02 13:41:06;;;;;;;16.58;6.45;;;;;;;;;;5019438;28;20026;-65
2024/04/02 13:43:32;;;;;;;10.77;5.97;;;;;;;;;;5013823;28;20368;-65
2024/04/02 13:46:02;;;;;;;16.35;6.40;;;;;;;;;;5014348;28;20029;-65
2024/04/02 13:48:27;;;;;;;16.20;5.85;;;;;;;;;;5014140;28;20045;-65
2024/04/02 13:51:06;;;;;;;10.90;5.93;;;;;;;;;;5014888;28;20025;-65
2024/04/02 13:53:32;;;;;;;14.80;6.45;;;;;;;;;;4995078;28;20045;-65
2024/04/02 13:55:58;;;;;;;14.70;6.05;;;;;;;;;;4993202;28;20030;-65
2024/04/02 13:58:24;;;;;;;22.58;9.45;;;;;;;;;;5013956;28;20515;-65
2024/04/02 14:00:49;;;;;;;35.15;18.13;;;;;;;;;;4994432;28;20046;-64
2024/04/02 14:03:15;;;;;;;22.85;10.32;;;;;;;;;;5002400;28;20053;-65
2024/04/02 14:05:40;;;;;;;16.45;10.20;;;;;;;;;;5016008;28;20029;-65
2024/04/02 14:08:06;;;;;;;37.15;22.58;;;;;;;;;;5013582;28;20022;-65
2024/04/02 14:10:35;;;;;;;12.75;7.10;;;;;;;;;;5016012;28;20030;-65
2024/04/02 14:13:01;;;;;;;34.22;18.58;;;;;;;;;;5012927;28;20022;-65
2024/04/02 14:15:39;;;;;;;25.42;12.07;;;;;;;;;;5018165;28;20076;-64
2024/04/02 14:18:04;;;;;;;29.20;14.23;;;;;;;;;;5013094;28;20056;-65
2024/04/02 14:20:30;;;;;;;29.60;13.60;;;;;;;;;;5014718;28;20056;-65
2024/04/02 14:22:56;;;;;;;33.60;16.33;;;;;;;;;;5027184;28;20048;-65
2024/04/02 14:25:21;;;;;;;19.83;9.07;;;;;;;;;;5013803;28;20388;-64
2024/04/02 14:27:46;;;;;;;21.40;9.88;;;;;;;;;;5013438;28;20034;-67